Time;durP1;ratioP1;P1;durP2;ratioP2;P2;SDS_P1;SDS_P2;PMS_P1;PMS_P2;Temp;Humidity;BMP_temperature;BMP_pressure;BME280_temperature;BME280_humidity;BME280_pressure;Samples;Min_cycle;Max_cycle;Signal;HPM_P1;HPM_P2
2023/05/05 00:02:14;;;;;;;;;7.00;7.00;;;;;17.55;51.88;101418.31;4948412;28;8917;-71
2023/05/05 00:04:41;;;;;;;;;6.67;6.67;;;;;17.57;52.19;101426.25;4942731;28;9007;-71
2023/05/05 00:07:07;;;;;;;;;2.33;2.33;;;;;17.57;51.94;101416.19;4960305;28;9093;-71
2023/05/05 00:09:34;;;;;;;;;8.67;7.67;;;;;17.58;52.15;101419.75;4958576;28;9014;-71
2023/05/05 00:12:00;;;;;;;;;6.67;6.67;;;;;17.59;52.06;101411.38;4954787;28;9109;-68
2023/05/05 00:14:27;;;;;;;;;8.67;8.67;;;;;17.58;52.45;101411.56;4947745;28;9370;-70
2023/05/05 00:16:53;;;;;;;;;10.67;8.00;;;;;17.57;52.55;101410.75;4954464;28;9084;-70
2023/05/05 00:19:19;;;;;;;;;9.00;5.67;;;;;17.56;52.86;101417.25;4957822;28;9094;-72
2023/05/05 00:21:46;;;;;;;;;11.67;11.33;;;;;17.54;53.39;101405.75;4944702;28;8999;-71
2023/05/05 00:24:12;;;;;;;;;8.33;8.33;;;;;17.53;53.77;101410.38;4960347;28;9073;-71
2023/05/05 00:26:39;;;;;;;;;7.00;7.00;;;;;17.51;54.32;101414.41;4951032;28;9147;-71
2023/05/05 00:29:05;;;;;;;;;8.33;8.00;;;;;17.47;54.65;101408.56;4949357;28;9003;-70
2023/05/05 00:31:32;;;;;;;;;7.67;7.00;;;;;17.47;54.96;101405.84;4941904;28;9083;-70
2023/05/05 00:33:58;;;;;;;;;8.33;8.00;;;;;17.46;54.86;101403.34;4954188;28;9248;-71
2023/05/05 00:36:25;;;;;;;;;8.00;8.00;;;;;17.40;55.00;101426.03;4959663;28;9286;-71
2023/05/05 00:38:51;;;;;;;;;12.67;10.00;;;;;17.31;53.85;101428.22;4956710;28;9940;-71
2023/05/05 00:41:18;;;;;;;;;17.33;16.67;;;;;17.26;53.90;101426.16;4940469;28;9436;-69
2023/05/05 00:43:44;;;;;;;;;12.00;11.00;;;;;17.24;54.08;101414.66;4928824;28;9397;-69
2023/05/05 00:46:23;;;;;;;;;10.00;10.00;;;;;17.24;54.83;101413.81;4935654;28;9251;-71
2023/05/05 00:48:50;;;;;;;;;10.67;10.67;;;;;17.21;55.32;101406.94;4955077;28;9304;-69
2023/05/05 00:51:19;;;;;;;;;12.33;12.33;;;;;17.22;55.38;101405.91;4959215;28;10061;-70
2023/05/05 00:53:47;;;;;;;;;14.67;11.67;;;;;17.19;56.40;101402.78;4959545;28;9227;-70
2023/05/05 00:56:15;;;;;;;;;16.33;16.33;;;;;17.19;56.89;101383.75;4934206;29;9310;-70
2023/05/05 00:58:43;;;;;;;;;23.00;16.67;;;;;17.16;57.47;101389.63;4935710;28;9495;-69
2023/05/05 01:01:10;;;;;;;;;12.00;12.00;;;;;17.16;58.30;101398.63;4950878;28;9471;-69
2023/05/05 01:03:38;;;;;;;;;14.67;13.00;;;;;17.18;59.00;101384.81;4961940;28;9385;-70
2023/05/05 01:06:20;;;;;;;;;18.50;14.25;;;;;17.18;59.53;101374.75;4953364;28;9238;-70
2023/05/05 01:09:19;;;;;;;;;15.00;15.00;;;;;17.18;60.34;101371.22;4954130;28;9483;-71
2023/05/05 01:12:30;;;;;;;;;12.00;11.67;;;;;17.22;60.52;101358.81;4936659;28;9323;-70
2023/05/05 01:15:30;;;;;;;;;16.33;14.67;;;;;17.26;60.48;101360.84;4943576;29;9299;-70
2023/05/05 01:18:37;;;;;;;;;9.67;7.33;;;;;17.25;60.77;101353.72;4944579;28;9965;-69
2023/05/05 01:21:44;;;;;;;;;13.00;12.00;;;;;17.27;60.70;101359.78;4954802;28;9317;-71
2023/05/05 01:24:36;;;;;;;;;8.33;7.67;;;;;17.31;60.99;101362.91;4929417;28;9367;-70
2023/05/05 01:27:12;;;;;;;;;8.00;8.00;;;;;17.32;61.00;101364.56;4937037;28;9103;-69
2023/05/05 01:29:48;;;;;;;;;9.33;8.00;;;;;17.32;60.71;101364.56;4955502;28;8983;-70
2023/05/05 01:32:20;;;;;;;;;8.33;7.33;;;;;17.34;60.90;101375.19;4958564;28;9082;-68
2023/05/05 01:34:55;;;;;;;;;6.00;6.00;;;;;17.33;60.98;101374.38;4965788;28;8998;-68
2023/05/05 01:37:26;;;;;;;;;5.00;5.00;;;;;17.35;60.72;101368.72;4951525;28;8997;-68
2023/05/05 01:39:58;;;;;;;;;2.33;2.33;;;;;17.38;60.84;101371.81;4946270;28;9221;-68
2023/05/05 01:42:27;;;;;;;;;4.67;4.33;;;;;17.38;60.93;101374.56;4948604;28;9010;-69
2023/05/05 01:44:55;;;;;;;;;6.67;5.00;;;;;17.38;61.04;101377.28;4946440;28;9091;-68
2023/05/05 01:47:22;;;;;;;;;3.67;3.67;;;;;17.37;60.55;101372.03;4955500;28;9063;-69
2023/05/05 01:49:51;;;;;;;;;3.00;2.25;;;;;17.36;61.05;101370.38;4959884;28;9063;-69
2023/05/05 01:52:18;;;;;;;;;5.67;5.67;;;;;17.34;61.00;101365.19;4960945;28;8847;-69
2023/05/05 01:54:48;;;;;;;;;5.00;5.00;;;;;17.30;61.38;101364.78;4960513;28;9175;-68
2023/05/05 01:57:15;;;;;;;;;1.00;1.00;;;;;17.28;61.45;101372.34;4939061;28;8916;-69
2023/05/05 01:59:42;;;;;;;;;3.00;3.00;;;;;17.27;61.36;101369.84;4958671;28;9700;-69
2023/05/05 02:02:10;;;;;;;;;3.67;3.67;;;;;17.28;61.25;101377.78;4941319;28;9643;-68
2023/05/05 02:04:42;;;;;;;;;2.00;2.00;;;;;17.29;61.22;101384.03;4951208;28;9635;-72
2023/05/05 02:07:11;;;;;;;;;3.00;2.25;;;;;17.29;61.21;101401.19;4945522;28;8907;-68
2023/05/05 02:09:39;;;;;;;;;2.00;2.00;;;;;17.27;61.24;101402.50;4937889;28;8843;-68
2023/05/05 02:12:07;;;;;;;;;2.67;2.67;;;;;17.24;60.93;101395.59;4963661;28;8858;-68
2023/05/05 02:14:34;;;;;;;;;2.75;2.75;;;;;17.22;61.43;101407.78;4931536;28;8963;-68
2023/05/05 02:17:02;;;;;;;;;2.67;2.67;;;;;17.21;61.30;101412.38;4960701;28;8823;-68
2023/05/05 02:19:33;;;;;;;;;3.00;3.00;;;;;17.19;61.05;101411.78;4944890;28;8976;-68
2023/05/05 02:21:59;;;;;;;;;3.50;2.25;;;;;17.19;61.59;101416.41;4968673;28;8924;-68
2023/05/05 02:24:26;;;;;;;;;4.33;4.33;;;;;17.13;61.46;101431.72;4923533;28;8835;-69
2023/05/05 02:26:55;;;;;;;;;5.25;3.75;;;;;17.08;61.99;101433.44;4938628;28;10037;-68
2023/05/05 02:29:43;;;;;;;;;4.00;4.00;;;;;17.04;62.11;101433.06;4960895;28;9522;-67
2023/05/05 02:32:15;;;;;;;;;5.33;5.00;;;;;17.02;62.75;101429.75;4959948;28;9785;-69
2023/05/05 02:34:45;;;;;;;;;2.67;2.67;;;;;16.99;62.39;101416.56;4942615;28;9664;-69
2023/05/05 02:37:18;;;;;;;;;2.33;2.00;;;;;16.96;62.99;101417.00;4940855;28;11049;-67
2023/05/05 02:39:57;;;;;;;;;4.33;3.00;;;;;16.93;62.85;101409.28;4947746;28;9088;-70
2023/05/05 02:42:31;;;;;;;;;2.00;2.00;;;;;16.89;63.54;101400.75;4947251;28;9034;-70
2023/05/05 02:45:14;;;;;;;;;3.00;2.00;;;;;16.89;63.44;101399.91;4929324;28;9080;-68
2023/05/05 02:47:44;;;;;;;;;7.67;3.67;;;;;16.87;63.26;101399.31;4937957;28;9078;-68
2023/05/05 02:50:10;;;;;;;;;2.67;2.67;;;;;16.85;63.68;101404.13;4940309;28;9230;-69
2023/05/05 02:52:44;;;;;;;;;3.00;2.00;;;;;16.84;63.48;101405.19;4942017;28;9191;-69
2023/05/05 02:55:12;;;;;;;;;2.00;2.00;;;;;16.80;63.63;101402.09;4961872;28;9678;-68
2023/05/05 02:57:47;;;;;;;;;2.00;2.00;;;;;16.77;63.89;101403.38;4939452;28;8914;-68
2023/05/05 03:00:35;;;;;;;;;2.67;2.67;;;;;16.74;63.79;101411.13;4946148;28;9117;-71
2023/05/05 03:03:23;;;;;;;;;2.00;2.00;;;;;16.68;64.18;101403.81;4959759;28;8921;-69
2023/05/05 03:06:11;;;;;;;;;5.00;3.00;;;;;16.67;64.52;101400.28;4947501;28;8996;-68
2023/05/05 03:08:48;;;;;;;;;2.33;2.33;;;;;16.63;64.47;101390.06;4937248;28;9105;-67
2023/05/05 03:11:24;;;;;;;;;2.00;2.00;;;;;16.58;64.77;101398.88;4958663;28;9001;-68
2023/05/05 03:14:04;;;;;;;;;2.33;2.33;;;;;16.51;64.53;101395.38;4947375;28;9167;-68
2023/05/05 03:16:33;;;;;;;;;1.33;1.33;;;;;16.49;64.50;101406.47;4943668;28;8922;-72
2023/05/05 03:19:02;;;;;;;;;3.00;3.00;;;;;16.42;64.65;101411.13;4933465;28;8922;-71
2023/05/05 03:21:31;;;;;;;;;1.67;1.67;;;;;16.38;64.81;101411.78;4956946;28;9127;-69
2023/05/05 03:23:58;;;;;;;;;2.33;2.33;;;;;16.37;64.87;101427.25;4959646;28;9010;-72
2023/05/05 03:26:24;;;;;;;;;1.33;1.00;;;;;16.38;64.61;101433.53;4948933;28;9769;-69
2023/05/05 03:28:51;;;;;;;;;2.33;2.33;;;;;16.37;64.87;101431.84;4928732;28;9077;-69
2023/05/05 03:31:23;;;;;;;;;2.33;2.33;;;;;16.34;64.58;101429.56;4939163;28;9025;-69
2023/05/05 03:33:53;;;;;;;;;2.00;2.00;;;;;16.26;64.97;101438.81;4949636;28;8981;-68
2023/05/05 03:36:23;;;;;;;;;1.67;1.67;;;;;16.24;64.85;101439.00;4927265;29;9163;-69
2023/05/05 03:38:51;;;;;;;;;2.00;2.00;;;;;16.25;64.78;101432.53;4958165;28;9181;-69
2023/05/05 03:41:21;;;;;;;;;3.00;2.00;;;;;16.24;65.28;101430.03;4944291;28;9090;-69
2023/05/05 03:43:49;;;;;;;;;4.00;2.00;;;;;16.22;64.92;101427.53;4940520;28;9015;-70
2023/05/05 03:46:16;;;;;;;;;2.00;2.00;;;;;16.18;64.92;101420.03;4942250;28;9079;-68
2023/05/05 03:48:43;;;;;;;;;5.33;4.00;;;;;16.18;65.09;101412.72;4958632;28;9152;-71
2023/05/05 03:51:11;;;;;;;;;2.00;2.00;;;;;16.16;64.98;101411.25;4958642;28;9061;-69
2023/05/05 03:53:38;;;;;;;;;2.67;2.67;;;;;16.13;65.28;101417.16;4957843;28;9314;-68
2023/05/05 03:56:06;;;;;;;;;7.00;5.00;;;;;16.10;65.50;101429.28;4939426;28;9055;-68
2023/05/05 03:58:32;;;;;;;;;6.00;6.00;;;;;16.10;65.69;101431.16;4948073;28;9371;-69
2023/05/05 04:00:59;;;;;;;;;4.67;3.33;;;;;16.09;65.75;101429.50;4943408;28;9300;-68
2023/05/05 04:03:25;;;;;;;;;7.00;6.33;;;;;16.06;65.73;101436.19;4955905;28;9513;-69
2023/05/05 04:05:52;;;;;;;;;6.67;2.67;;;;;16.06;65.63;101447.03;4949992;28;9302;-68
2023/05/05 04:08:20;;;;;;;;;5.25;5.00;;;;;16.07;66.01;101465.84;4947990;28;9341;-68
2023/05/05 04:10:47;;;;;;;;;3.33;3.33;;;;;16.05;65.67;101451.66;4955767;28;9387;-68
2023/05/05 04:13:14;;;;;;;;;4.67;4.67;;;;;16.06;65.99;101447.03;4934721;28;9241;-68
2023/05/05 04:15:45;;;;;;;;;6.00;4.00;;;;;16.08;66.12;101450.38;4946263;28;9413;-68
2023/05/05 04:18:13;;;;;;;;;5.00;5.00;;;;;16.07;65.82;101463.13;4959617;28;9242;-69
2023/05/05 04:20:39;;;;;;;;;6.00;5.33;;;;;16.08;66.04;101477.53;4953330;28;9388;-68
2023/05/05 04:23:07;;;;;;;;;6.00;5.33;;;;;16.06;66.06;101479.63;4942773;28;9312;-68
2023/05/05 04:25:34;;;;;;;;;7.50;6.00;;;;;16.04;66.23;101488.00;4928651;28;9227;-69
2023/05/05 04:28:01;;;;;;;;;6.33;3.33;;;;;16.03;66.11;101493.63;4940683;28;9473;-71
2023/05/05 04:30:29;;;;;;;;;6.67;6.67;;;;;16.01;66.25;101487.59;4957758;28;9244;-68
2023/05/05 04:32:56;;;;;;;;;6.33;6.33;;;;;16.01;66.31;101488.44;4961257;28;10312;-68
2023/05/05 04:35:23;;;;;;;;;3.00;3.00;;;;;15.97;65.99;101489.09;4956387;28;9394;-68
2023/05/05 04:37:52;;;;;;;;;10.00;10.00;;;;;15.96;66.53;101506.41;4936065;28;9222;-69
2023/05/05 04:40:19;;;;;;;;;8.33;6.67;;;;;15.97;66.64;101502.66;4940436;29;9583;-69
2023/05/05 04:42:46;;;;;;;;;10.50;7.75;;;;;15.96;66.29;101500.97;4951997;28;9427;-68
2023/05/05 04:45:12;;;;;;;;;6.67;6.67;;;;;15.95;66.34;101508.28;4937129;29;9535;-70
2023/05/05 04:47:39;;;;;;;;;6.67;6.67;;;;;15.95;66.38;101511.00;4934349;28;9340;-69
2023/05/05 04:50:07;;;;;;;;;7.00;6.50;;;;;15.96;66.39;101514.53;4941800;29;9383;-69
2023/05/05 04:52:34;;;;;;;;;6.00;6.00;;;;;15.97;66.38;101521.66;4945188;28;9385;-68
2023/05/05 04:55:01;;;;;;;;;11.67;8.00;;;;;15.96;66.86;101528.97;4950189;28;9408;-70
2023/05/05 04:57:28;;;;;;;;;11.67;6.33;;;;;15.96;66.53;101522.69;4944648;28;9312;-69
2023/05/05 04:59:56;;;;;;;;;5.00;5.00;;;;;16.06;66.72;101528.53;4960938;28;9402;-69
2023/05/05 05:02:22;;;;;;;;;10.00;8.33;;;;;16.14;66.33;101530.19;4964350;28;9319;-68
2023/05/05 05:04:49;;;;;;;;;10.00;5.33;;;;;16.19;66.25;101527.63;4948227;28;9529;-69
2023/05/05 05:07:15;;;;;;;;;7.33;6.67;;;;;16.25;65.94;101524.06;4968236;28;9183;-69
2023/05/05 05:09:42;;;;;;;;;6.00;6.00;;;;;16.30;66.08;101529.69;4944906;28;9250;-69
2023/05/05 05:12:08;;;;;;;;;4.67;4.67;;;;;16.41;65.74;101533.63;4941105;28;9440;-70
2023/05/05 05:14:36;;;;;;;;;9.00;7.00;;;;;16.49;65.11;101530.66;4949643;28;9230;-68
2023/05/05 05:17:03;;;;;;;;;5.33;5.33;;;;;16.58;65.16;101525.81;4940813;28;9082;-68
2023/05/05 05:19:31;;;;;;;;;7.00;6.33;;;;;16.69;65.25;101522.38;4946532;28;9011;-70
2023/05/05 05:21:58;;;;;;;;;9.67;9.00;;;;;16.81;64.43;101531.53;4952869;28;9068;-69
2023/05/05 05:24:25;;;;;;;;;7.00;7.00;;;;;16.88;63.95;101531.50;4946507;28;9163;-68
2023/05/05 05:26:52;;;;;;;;;8.33;8.33;;;;;16.85;63.61;101537.38;4929633;28;9082;-68
2023/05/05 05:29:19;;;;;;;;;9.33;8.67;;;;;16.75;63.93;101535.97;4944478;28;9227;-68
2023/05/05 05:31:47;;;;;;;;;11.33;11.33;;;;;16.71;64.24;101529.28;4947362;28;9175;-69
2023/05/05 05:34:13;;;;;;;;;10.00;10.00;;;;;16.74;64.15;101536.19;4962184;28;8979;-68
2023/05/05 05:36:40;;;;;;;;;9.33;8.67;;;;;16.77;64.71;101531.16;4941453;28;9078;-68
2023/05/05 05:39:07;;;;;;;;;10.00;8.00;;;;;16.79;64.27;101533.66;4954568;28;9233;-68
2023/05/05 05:41:33;;;;;;;;;14.25;14.00;;;;;16.75;63.85;101529.72;4948026;28;9269;-69
2023/05/05 05:44:00;;;;;;;;;11.00;11.00;;;;;16.72;64.27;101543.69;4954358;28;9458;-70
2023/05/05 05:46:27;;;;;;;;;18.67;17.67;;;;;16.60;63.82;101551.69;4961179;28;9233;-69
2023/05/05 05:48:54;;;;;;;;;14.33;13.00;;;;;16.51;64.07;101551.13;4944208;28;9332;-70
2023/05/05 05:51:21;;;;;;;;;17.00;16.00;;;;;16.46;64.37;101548.22;4949156;28;9323;-68
2023/05/05 05:53:48;;;;;;;;;16.50;14.00;;;;;16.44;64.45;101546.75;4950564;28;9629;-69
2023/05/05 05:56:14;;;;;;;;;15.00;15.00;;;;;16.43;64.64;101551.38;4957946;28;9553;-69
2023/05/05 05:58:41;;;;;;;;;15.33;12.33;;;;;16.46;64.66;101545.50;4962396;28;9414;-68
2023/05/05 06:01:08;;;;;;;;;22.33;14.00;;;;;16.59;64.77;101535.63;4929628;28;9507;-68
2023/05/05 06:03:35;;;;;;;;;20.33;15.00;;;;;16.79;64.25;101539.91;4954115;28;9387;-68
2023/05/05 06:06:02;;;;;;;;;14.67;13.00;;;;;16.99;63.98;101539.78;4956411;28;10045;-71
2023/05/05 06:08:28;;;;;;;;;15.67;14.33;;;;;17.20;63.12;101538.59;4943776;28;9308;-68
2023/05/05 06:10:56;;;;;;;;;10.00;10.00;;;;;17.42;62.43;101541.78;4953753;28;9390;-70
2023/05/05 06:13:22;;;;;;;;;16.67;15.00;;;;;17.60;62.00;101534.72;4962484;28;9150;-68
2023/05/05 06:15:51;;;;;;;;;11.33;10.33;;;;;17.72;61.29;101547.34;4953955;28;9224;-70
2023/05/05 06:18:18;;;;;;;;;14.00;12.67;;;;;17.86;61.34;101555.41;4940398;28;9148;-68
2023/05/05 06:20:48;;;;;;;;;16.67;15.33;;;;;17.99;60.53;101556.13;4965112;28;8987;-68
2023/05/05 06:23:15;;;;;;;;;13.67;13.67;;;;;18.13;60.51;101543.19;4935767;28;9176;-68
2023/05/05 06:25:47;;;;;;;;;16.00;12.00;;;;;18.24;60.25;101547.88;4936279;28;9068;-70
2023/05/05 06:28:14;;;;;;;;;13.33;11.33;;;;;18.31;59.63;101557.84;4954113;28;9065;-69
2023/05/05 06:30:40;;;;;;;;;14.67;13.33;;;;;18.33;59.31;101567.47;4936298;28;9059;-68
2023/05/05 06:33:07;;;;;;;;;9.75;9.00;;;;;18.35;58.90;101564.50;4958771;28;9018;-68
2023/05/05 06:35:33;;;;;;;;;12.33;12.33;;;;;18.40;58.97;101556.50;4942171;28;8859;-68
2023/05/05 06:37:59;;;;;;;;;14.67;13.33;;;;;18.45;59.17;101567.56;4960869;28;9775;-70
2023/05/05 06:40:26;;;;;;;;;16.00;14.00;;;;;18.48;58.92;101562.47;4957811;28;9193;-69
2023/05/05 06:42:52;;;;;;;;;8.67;8.33;;;;;18.51;58.44;101562.03;4952794;28;9770;-70
2023/05/05 06:45:24;;;;;;;;;8.25;8.25;;;;;18.58;58.39;101559.19;4934558;28;8995;-72
2023/05/05 06:47:51;;;;;;;;;11.33;11.33;;;;;18.61;58.30;101566.91;4950954;28;8822;-68
2023/05/05 06:50:18;;;;;;;;;12.00;9.00;;;;;18.56;57.85;101566.78;4951335;28;9007;-70
2023/05/05 06:52:45;;;;;;;;;7.50;5.50;;;;;18.54;58.26;101571.63;4958000;28;9030;-69
2023/05/05 06:55:11;;;;;;;;;9.00;8.25;;;;;18.52;58.36;101571.03;4952023;28;9526;-70
2023/05/05 06:57:37;;;;;;;;;9.00;7.50;;;;;18.52;58.28;101571.84;4952165;28;8828;-69
2023/05/05 07:00:04;;;;;;;;;8.25;6.75;;;;;18.54;58.47;101568.91;4961088;28;8839;-70
2023/05/05 07:02:32;;;;;;;;;9.00;9.00;;;;;18.44;57.93;101563.16;4925705;28;8883;-69
2023/05/05 07:04:59;;;;;;;;;11.00;9.00;;;;;18.34;57.88;101569.13;4937488;28;8862;-68
2023/05/05 07:07:25;;;;;;;;;9.75;7.75;;;;;18.33;58.32;101572.94;4970944;28;8864;-69
2023/05/05 07:09:52;;;;;;;;;7.33;7.33;;;;;18.40;58.11;101578.31;4962423;28;8852;-69
2023/05/05 07:12:18;;;;;;;;;8.75;8.00;;;;;18.48;57.99;101580.72;4953480;28;9043;-70
2023/05/05 07:14:45;;;;;;;;;7.25;7.25;;;;;18.55;57.78;101581.44;4963654;28;8847;-70
2023/05/05 07:17:12;;;;;;;;;6.00;6.00;;;;;18.62;57.82;101584.94;4959584;28;8926;-68
2023/05/05 07:19:38;;;;;;;;;7.50;7.00;;;;;18.72;57.66;101579.00;4964730;28;8809;-68
2023/05/05 07:22:05;;;;;;;;;9.50;9.50;;;;;18.79;57.43;101579.72;4955479;28;8835;-69
2023/05/05 07:24:31;;;;;;;;;9.75;8.75;;;;;18.84;57.26;101581.75;4934285;28;8872;-70
2023/05/05 07:26:58;;;;;;;;;8.75;5.00;;;;;18.87;56.83;101584.00;4960533;28;8835;-70
2023/05/05 07:29:24;;;;;;;;;7.25;5.75;;;;;18.92;56.93;101584.13;4956075;28;8843;-71
2023/05/05 07:31:51;;;;;;;;;3.50;3.00;;;;;18.91;56.52;101588.78;4954480;28;8961;-71
2023/05/05 07:34:17;;;;;;;;;1.25;1.25;;;;;18.82;56.07;101590.16;4952296;28;8985;-70
2023/05/05 07:36:44;;;;;;;;;4.50;2.50;;;;;18.79;56.04;101587.88;4960104;28;8845;-71
2023/05/05 07:39:13;;;;;;;;;2.00;2.00;;;;;18.84;56.37;101585.31;4956876;28;8819;-70
2023/05/05 07:41:41;;;;;;;;;2.00;1.75;;;;;18.80;55.83;101584.13;4959184;28;8833;-71
2023/05/05 07:44:07;;;;;;;;;3.25;1.50;;;;;18.81;55.56;101583.06;4949507;28;8871;-70
2023/05/05 07:46:34;;;;;;;;;1.75;1.75;;;;;18.81;55.68;101587.69;4955842;28;8910;-69
2023/05/05 07:49:00;;;;;;;;;1.75;1.75;;;;;18.82;55.29;101592.88;4951600;28;8838;-70
2023/05/05 07:51:27;;;;;;;;;0.50;0.00;;;;;18.89;55.70;101587.34;4937303;28;8817;-71
2023/05/05 07:53:54;;;;;;;;;0.25;0.25;;;;;18.94;55.78;101588.31;4953217;28;8932;-71
2023/05/05 07:56:20;;;;;;;;;1.50;1.50;;;;;18.95;55.25;101587.25;4957810;28;8831;-71
2023/05/05 07:58:47;;;;;;;;;2.00;1.25;;;;;18.93;54.79;101577.66;4934692;28;8870;-71
2023/05/05 08:01:13;;;;;;;;;1.00;1.00;;;;;18.84;55.51;101584.47;4954435;28;8839;-71
2023/05/05 08:03:40;;;;;;;;;2.00;2.00;;;;;18.82;55.62;101589.34;4956924;28;8870;-70
2023/05/05 08:06:10;;;;;;;;;0.75;0.75;;;;;18.76;55.36;101589.19;4962902;28;8805;-72
2023/05/05 08:08:37;;;;;;;;;1.25;1.25;;;;;18.78;55.66;101597.97;4953926;28;8847;-72
2023/05/05 08:11:05;;;;;;;;;1.00;1.00;;;;;18.77;55.88;101606.41;4935061;28;8836;-72
2023/05/05 08:13:31;;;;;;;;;0.75;0.25;;;;;18.80;55.78;101600.50;4950419;28;9566;-71
2023/05/05 08:15:58;;;;;;;;;0.75;0.75;;;;;18.83;55.65;101602.72;4945947;28;8944;-72
2023/05/05 08:18:25;;;;;;;;;2.00;2.00;;;;;18.84;55.30;101593.50;4950967;28;8954;-71
2023/05/05 08:20:53;;;;;;;;;1.25;1.00;;;;;18.86;55.04;101593.25;4951898;28;8827;-71
2023/05/05 08:23:20;;;;;;;;;1.75;1.75;;;;;18.85;55.00;101597.88;4951354;28;8966;-71
2023/05/05 08:25:46;;;;;;;;;2.25;2.25;;;;;18.83;55.10;101599.16;4961682;28;8852;-70
2023/05/05 08:28:13;;;;;;;;;3.25;2.00;;;;;18.77;55.03;101600.94;4943306;28;8853;-73
2023/05/05 08:30:39;;;;;;;;;1.25;1.25;;;;;18.75;55.10;101603.88;4933902;28;8834;-72
2023/05/05 08:33:06;;;;;;;;;1.00;0.00;;;;;18.75;55.21;101612.06;4935707;28;8835;-72
2023/05/05 08:35:32;;;;;;;;;1.00;1.00;;;;;18.75;55.04;101611.22;4950447;28;8851;-72
2023/05/05 08:37:59;;;;;;;;;0.00;0.00;;;;;18.80;54.67;101616.84;4963261;28;8845;-72
2023/05/05 08:40:32;;;;;;;;;1.00;1.00;;;;;18.84;55.10;101612.59;4954263;28;8839;-72
2023/05/05 08:43:00;;;;;;;;;0.00;0.00;;;;;18.94;54.70;101617.50;4955529;28;8839;-71
2023/05/05 08:45:30;;;;;;;;;0.00;0.00;;;;;19.03;54.46;101610.66;4960300;28;8940;-72
2023/05/05 08:48:00;;;;;;;;;2.00;1.75;;;;;18.98;53.90;101614.06;4950442;28;8821;-72
2023/05/05 08:50:28;;;;;;;;;1.00;0.00;;;;;18.98;54.12;101610.50;4959944;28;8824;-72
2023/05/05 08:53:11;;;;;;;;;1.00;1.00;;;;;18.95;54.16;101610.97;4954641;28;8862;-73
2023/05/05 08:55:49;;;;;;;;;1.75;1.25;;;;;19.08;54.04;101620.84;4954582;28;8909;-73
2023/05/05 08:58:17;;;;;;;;;2.00;0.75;;;;;19.14;53.26;101618.03;4945779;28;8816;-71
2023/05/05 09:00:45;;;;;;;;;0.75;0.75;;;;;19.20;53.09;101619.88;4963117;28;8941;-71
2023/05/05 09:03:12;;;;;;;;;0.25;0.25;;;;;19.20;52.70;101613.53;4954545;28;9598;-68
2023/05/05 09:05:41;;;;;;;;;0.00;0.00;;;;;19.20;52.86;101628.06;4937451;28;8862;-72
2023/05/05 09:08:09;;;;;;;;;0.00;0.00;;;;;19.24;52.82;101631.13;4956561;28;8883;-71
2023/05/05 09:10:40;;;;;;;;;0.00;0.00;;;;;19.26;53.66;101624.38;4950145;28;8826;-65
2023/05/05 09:13:06;;;;;;;;;1.25;1.25;;;;;19.34;55.07;101627.84;4956547;28;8859;-63
2023/05/05 09:15:33;;;;;;;;;1.25;1.00;;;;;19.35;54.32;101635.78;4955019;28;8922;-71
2023/05/05 09:18:00;;;;;;;;;0.00;0.00;;;;;19.29;52.80;101635.91;4941142;28;9308;-70
2023/05/05 09:20:34;;;;;;;;;1.00;0.00;;;;;19.22;53.02;101634.09;4944269;28;8879;-69
2023/05/05 09:23:08;;;;;;;;;0.50;0.00;;;;;19.13;53.21;101635.50;4965134;28;8840;-69
2023/05/05 09:25:35;;;;;;;;;0.00;0.00;;;;;19.04;52.95;101628.69;4935696;29;8833;-69
2023/05/05 09:28:09;;;;;;;;;2.75;2.00;;;;;19.01;53.65;101630.00;4952979;28;8823;-64
2023/05/05 09:30:36;;;;;;;;;2.00;1.00;;;;;19.03;53.94;101627.84;4961222;28;8829;-70
2023/05/05 09:33:03;;;;;;;;;0.00;0.00;;;;;19.02;52.96;101637.09;4965058;28;9567;-71
2023/05/05 09:35:50;;;;;;;;;1.00;0.00;;;;;18.99;52.96;101634.00;4973838;28;8837;-70
2023/05/05 09:38:17;;;;;;;;;0.00;0.00;;;;;18.98;52.88;101629.63;4938105;28;8871;-71
2023/05/05 09:40:49;;;;;;;;;0.25;0.25;;;;;18.95;52.52;101630.06;4958860;28;8849;-70
2023/05/05 09:43:16;;;;;;;;;0.00;0.00;;;;;18.90;52.78;101633.50;4962473;28;8847;-70
2023/05/05 09:45:43;;;;;;;;;0.00;0.00;;;;;18.87;53.26;101631.22;4965606;28;9538;-70
2023/05/05 09:48:27;;;;;;;;;0.00;0.00;;;;;18.87;53.41;101630.38;4954483;28;8812;-71
2023/05/05 09:50:55;;;;;;;;;0.25;0.25;;;;;18.86;53.32;101631.47;4954418;28;9617;-71
2023/05/05 09:53:22;;;;;;;;;0.00;0.00;;;;;18.82;53.29;101635.72;4936344;28;8873;-70
2023/05/05 09:55:53;;;;;;;;;0.00;0.00;;;;;18.78;53.50;101627.97;4964891;28;8821;-70
2023/05/05 09:58:22;;;;;;;;;0.00;0.00;;;;;18.73;53.40;101641.47;4953347;28;8857;-71
2023/05/05 10:00:49;;;;;;;;;0.75;0.75;;;;;18.67;53.33;101644.25;4960847;28;8867;-71
2023/05/05 10:03:16;;;;;;;;;0.75;0.75;;;;;18.64;53.02;101644.72;4958045;28;8963;-71
2023/05/05 10:05:54;;;;;;;;;0.00;0.00;;;;;18.61;53.36;101656.91;4927862;28;8857;-71
2023/05/05 10:08:23;;;;;;;;;0.00;0.00;;;;;18.52;53.66;101661.00;4932455;28;8836;-71
2023/05/05 10:10:59;;;;;;;;;0.00;0.00;;;;;18.49;54.57;101659.56;4969095;28;8840;-71
2023/05/05 10:13:26;;;;;;;;;0.00;0.00;;;;;18.44;55.31;101658.59;4953475;28;8835;-70
2023/05/05 10:15:54;;;;;;;;;1.00;1.00;;;;;18.38;56.14;101654.03;4953538;28;8870;-71
2023/05/05 10:18:26;;;;;;;;;2.00;0.00;;;;;18.37;57.18;101655.91;4944342;28;8836;-70
2023/05/05 10:20:57;;;;;;;;;0.25;0.00;;;;;18.36;57.85;101656.16;4959692;28;8835;-71
2023/05/05 10:23:53;;;;;;;;;0.00;0.00;;;;;18.28;58.74;101658.09;4935523;28;8843;-70
2023/05/05 10:26:21;;;;;;;;;0.00;0.00;;;;;18.27;59.59;101652.88;4942382;28;8935;-71
2023/05/05 10:28:55;;;;;;;;;0.00;0.00;;;;;18.25;60.05;101649.53;4970740;28;8907;-69
2023/05/05 10:31:25;;;;;;;;;0.00;0.00;;;;;18.22;60.40;101650.81;4960047;28;8839;-70
2023/05/05 10:33:59;;;;;;;;;0.00;0.00;;;;;18.21;60.16;101646.44;4934906;29;8849;-69
2023/05/05 10:36:26;;;;;;;;;0.00;0.00;;;;;18.22;60.21;101653.53;4938405;28;8825;-70
2023/05/05 10:38:57;;;;;;;;;0.00;0.00;;;;;18.27;60.19;101647.41;4953903;28;8912;-70
2023/05/05 10:41:27;;;;;;;;;0.00;0.00;;;;;18.27;59.91;101653.72;4964410;28;8903;-69
2023/05/05 10:43:56;;;;;;;;;0.00;0.00;;;;;18.23;59.63;101644.34;4953488;28;8835;-70
2023/05/05 10:46:27;;;;;;;;;0.00;0.00;;;;;18.22;59.54;101642.63;4948131;28;8842;-70
2023/05/05 10:49:09;;;;;;;;;0.00;0.00;;;;;18.22;59.59;101637.19;4961271;28;8839;-69
2023/05/05 10:51:38;;;;;;;;;0.00;0.00;;;;;18.22;59.94;101637.19;4949322;28;8834;-71
2023/05/05 10:54:15;;;;;;;;;0.00;0.00;;;;;18.25;60.60;101638.66;4935834;28;9677;-69
2023/05/05 10:56:42;;;;;;;;;0.25;0.25;;;;;18.27;60.38;101633.78;4942735;28;8861;-72
2023/05/05 10:59:36;;;;;;;;;0.00;0.00;;;;;18.32;60.40;101649.50;4955145;28;8988;-71
2023/05/05 11:02:27;;;;;;;;;0.00;0.00;;;;;18.35;60.47;101638.09;4961782;28;8841;-72
2023/05/05 11:05:16;;;;;;;;;0.25;0.25;;;;;18.32;60.28;101652.22;4935945;28;9610;-71
2023/05/05 11:07:44;;;;;;;;;0.00;0.00;;;;;18.23;59.43;101644.34;4958544;28;9532;-71
2023/05/05 11:10:13;;;;;;;;;0.00;0.00;;;;;18.25;59.56;101641.38;4963427;28;8895;-70
2023/05/05 11:12:56;;;;;;;;;0.00;0.00;;;;;18.25;59.80;101646.81;4957698;28;8946;-71
2023/05/05 11:15:26;;;;;;;;;0.00;0.00;;;;;18.21;59.46;101640.16;4959954;28;8859;-73
2023/05/05 11:17:54;;;;;;;;;0.00;0.00;;;;;18.15;59.56;101644.63;4949944;28;8811;-72
2023/05/05 11:20:38;;;;;;;;;1.00;0.00;;;;;18.03;59.26;101646.41;4934619;28;8846;-72
2023/05/05 11:23:04;;;;;;;;;0.00;0.00;;;;;17.95;59.46;101636.63;4951065;28;8825;-70
2023/05/05 11:25:34;;;;;;;;;1.25;0.00;;;;;17.96;59.73;101641.03;4958974;28;8847;-69
2023/05/05 11:28:16;;;;;;;;;0.00;0.00;;;;;17.97;60.02;101639.13;4948863;28;8836;-72
2023/05/05 11:30:55;;;;;;;;;0.00;0.00;;;;;18.00;60.54;101638.69;4940465;28;8831;-70
2023/05/05 11:33:37;;;;;;;;;0.00;0.00;;;;;18.00;60.39;101636.78;4964323;28;8821;-70
2023/05/05 11:36:05;;;;;;;;;0.00;0.00;;;;;18.00;61.16;101638.69;4951512;28;8862;-70
2023/05/05 11:39:00;;;;;;;;;0.75;0.00;;;;;17.98;61.38;101635.34;4943731;28;8868;-71
2023/05/05 11:41:43;;;;;;;;;0.00;0.00;;;;;17.97;61.60;101628.22;4964851;28;8959;-70
2023/05/05 11:44:11;;;;;;;;;2.00;2.00;;;;;17.92;61.70;101630.81;4966477;28;8821;-70